Time,TemperatureF,DewpointF,PressureIn,WindDirection,WindDirectionDegrees,WindSpeedMPH,WindSpeedGustMPH,Humidity,HourlyPrecipIn,Conditions,Clouds,dailyrainin,SoftwareType,DateUTC
2013-04-05 00:02:00,41.0,25.0,30.07,SSW,198,1.0,10.0,53,0.00,,,0.00,,2013-04-05 04:02:00,
2013-04-05 00:12:00,41.0,25.0,30.07,SSW,198,1.0,10.0,53,0.00,,,0.00,,2013-04-05 04:12:00,
2013-04-05 00:23:00,41.0,24.0,30.06,SSW,198,1.0,3.0,51,0.00,,,0.00,,2013-04-05 04:23:00,
2013-04-05 00:33:00,41.0,23.0,30.05,SSW,199,4.0,8.0,49,0.00,,,0.00,,2013-04-05 04:33:00,
2013-04-05 00:42:00,41.0,23.0,30.05,SSW,199,4.0,8.0,49,0.00,,,0.00,,2013-04-05 04:42:00,
2013-04-05 00:52:00,41.0,23.0,30.04,SSW,199,1.0,6.0,49,0.00,,,0.00,,2013-04-05 04:52:00,
2013-04-05 01:02:00,41.0,23.0,30.04,SSW,199,3.0,8.0,49,0.00,,,0.00,,2013-04-05 05:02:00,
2013-04-05 01:13:00,41.0,23.0,30.04,SSW,199,3.0,8.0,49,0.00,,,0.00,,2013-04-05 05:13:00,
2013-04-05 01:22:00,41.0,24.0,30.03,SSW,199,4.0,7.0,51,0.00,,,0.00,,2013-04-05 05:22:00,
2013-04-05 01:32:00,41.0,25.0,30.02,SSW,199,3.0,7.0,53,0.00,,,0.00,,2013-04-05 05:32:00,
2013-04-05 01:42:00,41.0,25.0,30.02,SSW,199,3.0,7.0,53,0.00,,,0.00,,2013-04-05 05:42:00,
2013-04-05 01:53:00,41.0,26.0,30.03,SSW,199,1.0,6.0,55,0.00,,,0.00,,2013-04-05 05:53:00,
2013-04-05 02:02:00,41.0,28.0,30.03,SSW,200,2.0,8.0,59,0.00,,,0.00,,2013-04-05 06:02:00,
2013-04-05 02:12:00,41.0,28.0,30.03,SSW,200,2.0,8.0,59,0.00,,,0.00,,2013-04-05 06:12:00,
2013-04-05 02:22:00,41.0,29.0,30.02,SSW,213,2.0,7.0,61,0.00,,,0.00,,2013-04-05 06:22:00,
2013-04-05 02:32:00,41.0,29.0,30.01,SSW,212,1.0,7.0,62,0.00,,,0.00,,2013-04-05 06:32:00,
2013-04-05 02:42:00,41.0,29.0,30.01,SSW,212,1.0,7.0,62,0.00,,,0.00,,2013-04-05 06:42:00,
2013-04-05 02:52:00,41.0,29.0,30.00,SSW,212,2.0,7.0,62,0.00,,,0.00,,2013-04-05 06:52:00,
2013-04-05 03:02:00,41.0,29.0,29.99,SSW,209,4.0,12.0,61,0.00,,,0.00,,2013-04-05 07:02:00,
2013-04-05 03:12:00,41.0,29.0,29.99,SSW,209,4.0,12.0,61,0.00,,,0.00,,2013-04-05 07:12:00,
2013-04-05 03:22:00,41.0,29.0,29.98,SSW,206,2.0,8.0,62,0.00,,,0.00,,2013-04-05 07:22:00,
2013-04-05 03:32:00,41.0,29.0,29.98,SSW,206,2.0,8.0,62,0.00,,,0.00,,2013-04-05 07:32:00,
2013-04-05 03:42:00,41.0,29.0,29.98,SSW,206,2.0,8.0,62,0.00,,,0.00,,2013-04-05 07:42:00,
2013-04-05 03:53:00,41.0,29.0,29.98,SSW,213,1.0,5.0,62,0.00,,,0.00,,2013-04-05 07:53:00,
2013-04-05 04:02:00,41.0,29.0,29.98,SSW,210,2.0,5.0,63,0.00,,,0.00,,2013-04-05 08:02:00,
2013-04-05 04:13:00,41.0,29.0,29.98,SSW,210,2.0,5.0,63,0.00,,,0.00,,2013-04-05 08:13:00,
2013-04-05 04:22:00,41.0,30.0,29.97,SSW,210,2.0,5.0,64,0.00,,,0.00,,2013-04-05 08:22:00,
2013-04-05 04:32:00,41.0,30.0,29.96,SSW,210,0.0,6.0,65,0.00,,,0.00,,2013-04-05 08:32:00,
2013-04-05 04:43:00,41.0,30.0,29.96,SSW,210,0.0,6.0,65,0.00,,,0.00,,2013-04-05 08:43:00,
2013-04-05 04:52:00,41.0,30.0,29.95,SSW,210,2.0,3.0,65,0.00,,,0.00,,2013-04-05 08:52:00,
2013-04-05 05:02:00,41.0,31.0,29.94,SSW,209,1.0,7.0,66,0.00,,,0.00,,2013-04-05 09:02:00,
2013-04-05 05:12:00,41.0,31.0,29.94,SSW,209,1.0,7.0,66,0.00,,,0.00,,2013-04-05 09:12:00,
2013-04-05 05:22:00,41.0,31.0,29.94,SSW,209,1.0,6.0,67,0.00,,,0.00,,2013-04-05 09:22:00,
2013-04-05 05:33:00,41.0,31.0,29.93,SSW,209,2.0,5.0,68,0.00,,,0.00,,2013-04-05 09:33:00,
2013-04-05 05:43:00,41.0,31.0,29.93,SSW,209,2.0,5.0,68,0.00,,,0.00,,2013-04-05 09:43:00,
2013-04-05 05:53:00,41.0,31.0,29.93,SSW,209,0.0,2.0,68,0.00,,,0.00,,2013-04-05 09:53:00,
2013-04-05 06:03:00,41.0,31.0,29.93,SSW,209,0.0,2.0,67,0.00,,,0.00,,2013-04-05 10:03:00,
2013-04-05 06:13:00,41.0,31.0,29.93,SSW,209,0.0,2.0,67,0.00,,,0.00,,2013-04-05 10:13:00,
2013-04-05 06:23:00,41.0,32.0,29.93,SSW,209,1.0,2.0,69,0.00,,,0.00,,2013-04-05 10:23:00,
2013-04-05 06:33:00,41.0,32.0,29.91,SSW,209,0.0,2.0,70,0.00,,,0.00,,2013-04-05 10:33:00,
2013-04-05 06:43:00,41.0,32.0,29.91,SSW,209,0.0,2.0,70,0.00,,,0.00,,2013-04-05 10:43:00,
2013-04-05 06:53:00,41.0,32.0,29.92,SSW,209,1.0,3.0,71,0.00,,,0.00,,2013-04-05 10:53:00,
2013-04-05 07:03:00,41.0,33.0,29.91,SSW,209,2.0,6.0,74,0.00,,,0.00,,2013-04-05 11:03:00,
2013-04-05 07:13:00,41.0,33.0,29.91,SSW,209,2.0,6.0,74,0.00,,,0.00,,2013-04-05 11:13:00,
2013-04-05 07:22:00,41.0,34.0,29.91,SSW,209,1.0,5.0,75,0.00,,,0.00,,2013-04-05 11:22:00,
2013-04-05 07:33:00,41.0,34.0,29.91,SSW,209,1.0,2.0,75,0.00,,,0.00,,2013-04-05 11:33:00,
2013-04-05 07:42:00,41.0,34.0,29.91,SSW,209,1.0,2.0,75,0.00,,,0.00,,2013-04-05 11:42:00,
2013-04-05 07:52:00,41.0,34.0,29.90,SSW,209,1.0,2.0,75,0.00,,,0.00,,2013-04-05 11:52:00,
2013-04-05 08:02:00,41.0,34.0,29.90,SSW,209,0.0,0.0,75,0.00,,,0.00,,2013-04-05 12:02:00,
2013-04-05 08:12:00,41.0,34.0,29.90,SSW,209,0.0,0.0,75,0.00,,,0.00,,2013-04-05 12:12:00,
2013-04-05 08:22:00,41.0,34.0,29.90,SSW,209,1.0,2.0,75,0.00,,,0.00,,2013-04-05 12:22:00,
2013-04-05 08:32:00,41.0,34.0,29.89,SSW,209,0.0,2.0,77,0.00,,,0.00,,2013-04-05 12:32:00,
2013-04-05 08:42:00,41.0,34.0,29.89,SSW,209,0.0,2.0,77,0.00,,,0.00,,2013-04-05 12:42:00,
2013-04-05 08:52:00,41.0,34.0,29.87,SSW,209,0.0,0.0,77,0.00,,,0.00,,2013-04-05 12:52:00,
2013-04-05 09:02:00,41.0,34.0,29.88,SSW,209,0.0,0.0,77,0.00,,,0.00,,2013-04-05 13:02:00,
2013-04-05 09:12:00,41.0,34.0,29.88,SSW,209,0.0,0.0,77,0.00,,,0.00,,2013-04-05 13:12:00,
2013-04-05 09:23:00,41.0,34.0,29.88,SSW,209,0.0,2.0,76,0.00,,,0.00,,2013-04-05 13:23:00,
2013-04-05 09:32:00,42.0,34.0,29.87,SSW,209,0.0,0.0,74,0.00,,,0.00,,2013-04-05 13:32:00,
2013-04-05 09:42:00,42.0,34.0,29.87,SSW,209,0.0,0.0,74,0.00,,,0.00,,2013-04-05 13:42:00,
2013-04-05 09:52:00,42.0,34.0,29.85,SSW,209,0.0,0.0,73,0.00,,,0.00,,2013-04-05 13:52:00,
2013-04-05 10:03:00,43.0,32.0,29.85,SSW,209,0.0,2.0,66,0.00,,,0.00,,2013-04-05 14:03:00,
2013-04-05 10:12:00,43.0,32.0,29.85,SSW,209,0.0,2.0,66,0.00,,,0.00,,2013-04-05 14:12:00,
2013-04-05 10:23:00,45.0,33.0,29.83,SSW,209,0.0,2.0,62,0.00,,,0.00,,2013-04-05 14:23:00,
2013-04-05 10:37:00,46.0,31.0,29.83,SW,233,1.0,6.0,56,0.00,,,0.00,,2013-04-05 14:37:00,
2013-04-05 10:43:00,46.0,31.0,29.83,SW,233,1.0,6.0,56,0.00,,,0.00,,2013-04-05 14:43:00,
2013-04-05 10:54:00,47.0,31.0,29.82,SW,234,1.0,5.0,53,0.00,,,0.00,,2013-04-05 14:54:00,
2013-04-05 11:02:00,48.0,30.0,29.82,SW,234,0.0,3.0,50,0.00,,,0.00,,2013-04-05 15:02:00,
2013-04-05 11:13:00,48.0,30.0,29.82,SW,234,0.0,3.0,50,0.00,,,0.00,,2013-04-05 15:13:00,
2013-04-05 11:23:00,50.0,26.0,29.82,SW,236,1.0,5.0,39,0.00,,,0.00,,2013-04-05 15:23:00,
2013-04-05 11:33:00,50.0,25.0,29.80,WNW,291,1.0,6.0,38,0.00,,,0.00,,2013-04-05 15:33:00,
2013-04-05 11:43:00,50.0,25.0,29.80,WNW,291,1.0,6.0,38,0.00,,,0.00,,2013-04-05 15:43:00,
2013-04-05 11:54:00,50.0,27.0,29.79,NW,312,1.0,6.0,40,0.00,,,0.00,,2013-04-05 15:54:00,
2013-04-05 12:03:00,50.0,23.0,29.79,North,357,5.0,9.0,35,0.00,,,0.00,,2013-04-05 16:03:00,
2013-04-05 12:13:00,50.0,23.0,29.79,North,357,5.0,9.0,35,0.00,,,0.00,,2013-04-05 16:13:00,
2013-04-05 12:23:00,51.0,25.0,29.78,NNW,348,3.0,6.0,36,0.00,,,0.00,,2013-04-05 16:23:00,
2013-04-05 12:33:00,53.0,22.0,29.77,NNW,342,3.0,8.0,29,0.00,,,0.00,,2013-04-05 16:33:00,
2013-04-05 12:42:00,53.0,22.0,29.77,NNW,342,3.0,8.0,29,0.00,,,0.00,,2013-04-05 16:42:00,
2013-04-05 12:53:00,52.0,22.0,29.76,NNW,342,2.0,10.0,31,0.00,,,0.00,,2013-04-05 16:53:00,
2013-04-05 13:03:00,54.0,22.0,29.75,NW,315,3.0,8.0,28,0.00,,,0.00,,2013-04-05 17:03:00,
2013-04-05 13:13:00,54.0,22.0,29.75,NW,315,3.0,8.0,28,0.00,,,0.00,,2013-04-05 17:13:00,
2013-04-05 13:23:00,54.0,22.0,29.75,NNW,346,3.0,10.0,28,0.00,,,0.00,,2013-04-05 17:23:00,
2013-04-05 13:32:00,55.0,20.0,29.73,NNE,13,5.0,14.0,25,0.00,,,0.00,,2013-04-05 17:32:00,
2013-04-05 13:45:00,55.0,20.0,29.73,NNE,13,5.0,14.0,25,0.00,,,0.00,,2013-04-05 17:45:00,
2013-04-05 13:53:00,56.0,19.0,29.72,NNW,329,2.0,8.0,23,0.00,,,0.00,,2013-04-05 17:53:00,
2013-04-05 14:02:00,56.0,17.0,29.71,WNW,297,7.0,13.0,21,0.00,,,0.00,,2013-04-05 18:02:00,
2013-04-05 14:13:00,56.0,17.0,29.71,WNW,297,7.0,13.0,21,0.00,,,0.00,,2013-04-05 18:13:00,
2013-04-05 14:23:00,57.0,15.0,29.70,WNW,301,5.0,12.0,19,0.00,,,0.00,,2013-04-05 18:23:00,
2013-04-05 14:33:00,58.0,15.0,29.70,NW,315,6.0,12.0,18,0.00,,,0.00,,2013-04-05 18:33:00,
2013-04-05 14:43:00,58.0,15.0,29.70,NW,315,6.0,12.0,18,0.00,,,0.00,,2013-04-05 18:43:00,
2013-04-05 14:53:00,58.0,15.0,29.70,WNW,302,6.0,12.0,18,0.00,,,0.00,,2013-04-05 18:53:00,
2013-04-05 15:00:00,59.0,16.0,29.68,NNW,336,2.0,13.0,18,0.00,,,0.00,,2013-04-05 19:00:00,
2013-04-05 15:02:00,59.0,17.0,29.69,WNW,296,6.0,14.0,19,0.00,,,0.00,,2013-04-05 19:02:00,
2013-04-05 15:13:00,59.0,17.0,29.69,WNW,296,6.0,14.0,19,0.00,,,0.00,,2013-04-05 19:13:00,
2013-04-05 15:23:00,59.0,16.0,29.68,NNW,336,2.0,13.0,18,0.00,,,0.00,,2013-04-05 19:23:00,
2013-04-05 15:33:00,59.0,16.0,29.68,NNW,336,2.0,13.0,18,0.00,,,0.00,,2013-04-05 19:33:00,
2013-04-05 15:42:00,59.0,16.0,29.68,NNW,336,2.0,13.0,18,0.00,,,0.00,,2013-04-05 19:42:00,
2013-04-05 15:53:00,59.0,16.0,29.68,NNW,336,2.0,13.0,18,0.00,,,0.00,,2013-04-05 19:53:00,
2013-04-05 16:22:00,61.0,20.0,29.65,NW,321,4.0,14.0,20,0.00,,,0.00,,2013-04-05 20:22:00,
2013-04-05 16:33:00,61.0,20.0,29.65,NW,321,4.0,14.0,20,0.00,,,0.00,,2013-04-05 20:33:00,
2013-04-05 16:43:00,61.0,20.0,29.65,NW,321,4.0,14.0,20,0.00,,,0.00,,2013-04-05 20:43:00,
2013-04-05 16:52:00,61.0,21.0,29.65,NNW,336,6.0,12.0,21,0.00,,,0.00,,2013-04-05 20:52:00,
2013-04-05 17:03:00,61.0,21.0,29.65,NNW,328,7.0,16.0,21,0.00,,,0.00,,2013-04-05 21:03:00,
2013-04-05 17:13:00,61.0,21.0,29.65,NNW,328,7.0,16.0,21,0.00,,,0.00,,2013-04-05 21:13:00,
2013-04-05 17:23:00,61.0,21.0,29.66,NW,315,7.0,14.0,21,0.00,,,0.00,,2013-04-05 21:23:00,
2013-04-05 17:33:00,61.0,20.0,29.67,NW,316,9.0,20.0,20,0.00,,,0.00,,2013-04-05 21:33:00,
2013-04-05 17:43:00,61.0,20.0,29.67,NW,316,9.0,20.0,20,0.00,,,0.00,,2013-04-05 21:43:00,
2013-04-05 18:03:00,60.0,18.0,29.69,North,353,9.0,14.0,19,0.00,,,0.00,,2013-04-05 22:03:00,
2013-04-05 18:13:00,60.0,18.0,29.69,North,353,9.0,14.0,19,0.00,,,0.00,,2013-04-05 22:13:00,
2013-04-05 18:23:00,59.0,14.0,29.70,NW,305,5.0,13.0,17,0.00,,,0.00,,2013-04-05 22:23:00,
2013-04-05 18:33:00,59.0,14.0,29.72,WNW,291,8.0,13.0,17,0.00,,,0.00,,2013-04-05 22:33:00,
2013-04-05 18:43:00,59.0,14.0,29.72,WNW,291,8.0,13.0,17,0.00,,,0.00,,2013-04-05 22:43:00,
2013-04-05 18:53:00,58.0,16.0,29.73,North,354,3.0,8.0,19,0.00,,,0.00,,2013-04-05 22:53:00,
2013-04-05 19:03:00,57.0,14.0,29.74,NW,306,7.0,16.0,18,0.00,,,0.00,,2013-04-05 23:03:00,
2013-04-05 19:12:00,57.0,14.0,29.74,NW,306,7.0,16.0,18,0.00,,,0.00,,2013-04-05 23:12:00,
2013-04-05 19:22:00,56.0,14.0,29.74,NW,312,7.0,17.0,19,0.00,,,0.00,,2013-04-05 23:22:00,
2013-04-05 19:32:00,55.0,12.0,29.75,NW,307,6.0,13.0,18,0.00,,,0.00,,2013-04-05 23:32:00,
2013-04-05 19:42:00,55.0,12.0,29.75,NW,307,6.0,13.0,18,0.00,,,0.00,,2013-04-05 23:42:00,
2013-04-05 19:53:00,55.0,12.0,29.76,NNW,346,4.0,12.0,18,0.00,,,0.00,,2013-04-05 23:53:00,
2013-04-05 20:02:00,54.0,13.0,29.77,NNW,338,5.0,12.0,19,0.00,,,0.00,,2013-04-06 00:02:00,
2013-04-05 20:13:00,54.0,13.0,29.77,NNW,338,5.0,12.0,19,0.00,,,0.00,,2013-04-06 00:13:00,
2013-04-05 20:23:00,54.0,13.0,29.78,NNW,348,7.0,14.0,19,0.00,,,0.00,,2013-04-06 00:23:00,
2013-04-05 20:33:00,53.0,14.0,29.79,North,353,4.0,13.0,21,0.00,,,0.00,,2013-04-06 00:33:00,
2013-04-05 20:42:00,53.0,14.0,29.79,North,353,4.0,13.0,21,0.00,,,0.00,,2013-04-06 00:42:00,
2013-04-05 20:52:00,52.0,13.0,29.80,NNW,339,3.0,13.0,21,0.00,,,0.00,,2013-04-06 00:52:00,
2013-04-05 21:02:00,51.0,12.0,29.81,NNW,345,3.0,10.0,21,0.00,,,0.00,,2013-04-06 01:02:00,
2013-04-05 21:13:00,51.0,15.0,29.83,NNW,345,3.0,13.0,23,0.00,,,0.00,,2013-04-06 01:13:00,
2013-04-05 21:22:00,51.0,15.0,29.83,NNW,345,3.0,13.0,23,0.00,,,0.00,,2013-04-06 01:22:00,
2013-04-05 21:33:00,50.0,15.0,29.84,NNW,348,5.0,10.0,24,0.00,,,0.00,,2013-04-06 01:33:00,
2013-04-05 21:43:00,50.0,15.0,29.84,NNW,348,5.0,10.0,24,0.00,,,0.00,,2013-04-06 01:43:00,
2013-04-05 21:53:00,50.0,15.0,29.85,NNW,341,5.0,14.0,24,0.00,,,0.00,,2013-04-06 01:53:00,
2013-04-05 22:02:00,49.0,16.0,29.86,NNW,332,6.0,13.0,26,0.00,,,0.00,,2013-04-06 02:02:00,
2013-04-05 22:12:00,49.0,16.0,29.86,NNW,332,6.0,13.0,26,0.00,,,0.00,,2013-04-06 02:12:00,
2013-04-05 22:23:00,48.0,16.0,29.87,NNW,329,7.0,13.0,28,0.00,,,0.00,,2013-04-06 02:23:00,
2013-04-05 22:32:00,47.0,19.0,29.88,North,356,6.0,17.0,32,0.00,,,0.00,,2013-04-06 02:32:00,
2013-04-05 22:42:00,47.0,19.0,29.88,North,356,6.0,17.0,32,0.00,,,0.00,,2013-04-06 02:42:00,
2013-04-05 22:53:00,46.0,18.0,29.89,North,355,7.0,18.0,32,0.00,,,0.00,,2013-04-06 02:53:00,
2013-04-05 23:02:00,45.0,17.0,29.91,NW,319,7.0,14.0,32,0.00,,,0.00,,2013-04-06 03:02:00,
2013-04-05 23:13:00,45.0,17.0,29.91,NW,319,7.0,14.0,32,0.00,,,0.00,,2013-04-06 03:13:00,
2013-04-05 23:22:00,45.0,17.0,29.90,NNW,343,8.0,13.0,32,0.00,,,0.00,,2013-04-06 03:22:00,
2013-04-05 23:34:00,44.0,16.0,29.91,NNW,344,6.0,14.0,32,0.00,,,0.00,,2013-04-06 03:34:00,
2013-04-05 23:43:00,44.0,16.0,29.91,NNW,344,6.0,14.0,32,0.00,,,0.00,,2013-04-06 03:43:00,
2013-04-05 23:54:00,44.0,17.0,29.91,NNW,330,6.0,20.0,34,0.00,,,0.00,,2013-04-06 03:54:00,